CCGS Samuel Risley — CG2960 — position and weather

sailwx.info

Track history (hours):
 
Tides and Currents Weather Stations Pressure Air Temp Water Temp Dewpoint Dewpoint Depression Visibility Wind Speed Wind Dir Waves Ship Positions

CCGS Samuel Risley (Canada)

Medium Navaids Tender - Light Icebreaker

Last reported at 2018-Jan-24 08:00 UTC. Time now 2018-Jan-24 09:30 UTC.
Position N 42°36' W 082°30'.

Length 69.73 m; beam 13.7 m; draft 5.2 m.

Type: SAR. MMSI: 316001890.

Wind from 330 at 1 knots

Barometer 1019.0 mb
Air temperature -2.9 ° C
Dewpoint -6.1 ° C

Date/timePositionNaut miles runAvg speedWind from/ knotsBaromVisibWave heightAir tempDewpointWater temp
2018-Jan-24 08:00N 42°36' W 082°30'0 0.0 330 / 11019.0 -2.9-6.1
2018-Jan-24 07:00N 42°36' W 082°30'0 0.0 340 / 11017.8 -3.3-6.6
2018-Jan-24 06:00N 42°36' W 082°30'0 0.0 350 / 21017.3 -3.8-7.4
2018-Jan-24 05:00N 42°36' W 082°30'0 0.0 340 / 31016.7 -3.8-7.8
2018-Jan-24 04:00N 42°36' W 082°30'0 0.0 300 / 31015.4 -2.7-6.3
2018-Jan-24 03:00N 42°36' W 082°30'0 0.0 310 / 31014.3 -2.3-6.1
2018-Jan-24 02:00N 42°36' W 082°30'7 7.5 300 / 31012.8 -1.2-5.0
2018-Jan-24 01:00N 42°30' W 082°36'6 6.0 260 / 111011.7 -0.8-3.5
2018-Jan-24 00:00N 42°36' W 082°36'6 6.0 260 / 101010.3 -0.6-3.0
2018-Jan-23 23:00N 42°30' W 082°36'1312.8 290 / 101008.2 -0.3-0.8
2018-Jan-23 22:00N 42°42' W 082°30'1312.8 290 / 121006.1 1.0-1.2
2018-Jan-23 21:00N 42°30' W 082°36'1110.7 270 / 151004.5 4.2-1.0
2018-Jan-23 20:00N 42°24' W 082°48'0 0.0 260 / 181002.7 2.8-1.6
2018-Jan-23 19:00N 42°24' W 082°48'0 0.0 260 / 201001.8 3.1-1.1
2018-Jan-23 18:00N 42°24' W 082°48'0 0.0 230 / 141001.6 6.6 1.7
2018-Jan-23 17:00N 42°24' W 082°48'7 7.5 230 / 191001.4 2.7 0.6
2018-Jan-23 16:00N 42°30' W 082°42'1110.7 220 / 191001.6 1.7 0.9
2018-Jan-23 15:00N 42°36' W 082°30'6 6.0 210 / 151000.8 1.9 1.1
2018-Jan-23 14:00N 42°42' W 082°30'0 0.0 230 / 8 2.5 1.7
2018-Jan-23 13:00N 42°42' W 082°30'6 6.0 220 / 9 3.9 2.2
2018-Jan-23 12:00N 42°36' W 082°30'0 0.0 220 / 15999.6 6.7 3.8
2018-Jan-23 11:00N 42°36' W 082°30'0 0.0 200 / 11999.2 3.8 3.4
2018-Jan-23 10:00N 42°36' W 082°30'0 0.0 220 / 7998.9 6.5 4.7
2018-Jan-23 09:00N 42°36' W 082°30'0 0.0 210 / 13999.1 6.0 5.6
2018-Jan-23 08:00N 42°36' W 082°30'0 0.0 210 / 8999.0 5.5 5.4
2018-Jan-23 07:00N 42°36' W 082°30'0 0.0 190 / 10999.7 7.3 6.3
2018-Jan-23 06:00N 42°36' W 082°30'0 0.0 160 / 6998.8 8.5 7.5
2018-Jan-23 05:00N 42°36' W 082°30'0 0.0 190 / 141000.5 8.8 8.5
2018-Jan-23 04:00N 42°36' W 082°30'0 0.0 210 / 31001.0 8.2 7.9
2018-Jan-23 03:00N 42°36' W 082°30'0 0.0 150 / 41002.3 8.1 7.4
2018-Jan-23 02:00N 42°36' W 082°30'0 0.0 170 / 71003.4 8.5 7.4
2018-Jan-23 01:00N 42°36' W 082°30'1110.7 170 / 71004.1 8.7 7.8
2018-Jan-23 00:00N 42°30' W 082°42'4 4.4 150 / 131004.1 4.8 4.7
2018-Jan-22 23:00N 42°30' W 082°36'0 0.0 140 / 121004.3 6.1 5.4
2018-Jan-22 22:00N 42°30' W 082°36'7 7.5 130 / 81004.5 6.9 5.7
2018-Jan-22 21:00N 42°36' W 082°30'4 4.4 170 / 111005.2 9.5 6.4
2018-Jan-22 20:00N 42°36' W 082°36'1110.7 170 / 111005.7 8.4 6.3
2018-Jan-22 19:00N 42°30' W 082°48'6 6.0 190 / 131006.7 7.3 5.4
2018-Jan-22 18:00N 42°24' W 082°48'7 7.5 110 / 71008.0 4.8 4.7
2018-Jan-22 17:00N 42°30' W 082°42'7 7.5 090 / 71010.4 4.1 4.0
2018-Jan-22 16:00N 42°36' W 082°36'7 7.4 120 / 71011.2 6.2 6.2
2018-Jan-22 15:00N 42°42' W 082°30'6 6.0 120 / 8 4.1 4.1
2018-Jan-22 14:00N 42°48' W 082°30'7 7.4 100 / 61012.9 3.1 3.0
2018-Jan-22 13:00N 42°54' W 082°24'1212.0 100 / 91013.2 2.4 2.4
2018-Jan-22 12:00N 43°06' W 082°24'1312.8 030 / 91014.6 0.5 0.5
2018-Jan-22 11:00N 43°18' W 082°18'6 6.0 020 / 81015.1 1.2 1.2
2018-Jan-22 10:00N 43°24' W 082°18'7 7.4 030 / 91016.2 0.7 0.6
2018-Jan-22 09:00N 43°30' W 082°12'0 0.0 050 / 71016.5 1.0 1.0
2018-Jan-22 08:00N 43°30' W 082°12'0 0.0 060 / 81017.1 1.0 0.9
2018-Jan-22 07:00N 43°30' W 082°12'0 0.0 060 / 81017.3 0.9 0.8
2018-Jan-22 05:00N 43°30' W 082°12'7 7.4 120 / 31018.2 1.0 0.9
2018-Jan-22 04:00N 43°36' W 082°06'7 7.4 120 / 61018.3 0.9 0.8
2018-Jan-22 03:00N 43°42' W 082°00'4 4.3 140 / 51018.3 1.2 1.1
2018-Jan-22 02:00N 43°42' W 081°54'4 4.3 170 / 71018.5 0.7 0.6
2018-Jan-22 01:00N 43°42' W 081°48'4 4.3 170 / 31018.5 1.4 1.3
2018-Jan-22 00:00N 43°42' W 081°42'4 4.3 140 / 41017.9 1.6 1.3
2018-Jan-21 23:00N 43°42' W 081°48'4 4.3 140 / 51017.8 1.5 1.4
2018-Jan-21 22:00N 43°42' W 081°42'0 0.0 110 / 61017.5 1.7 1.4
2018-Jan-21 21:00N 43°42' W 081°42'0 0.0 100 / 31017.6 5.0 2.4
2018-Jan-21 20:00N 43°42' W 081°42'0 0.0 110 / 41017.7 2.5 1.5
2018-Jan-21 19:00N 43°42' W 081°42'0 0.0 150 / 41018.0 2.3 0.8
2018-Jan-21 18:00N 43°42' W 081°42'0 0.0 130 / 21018.2 3.7 0.7
2018-Jan-21 17:00N 43°42' W 081°42'0 0.0 150 / 61019.1 1.8 0.1
2018-Jan-21 16:00N 43°42' W 081°42'4 4.3 160 / 41019.5 3.4 0.1
2018-Jan-21 15:00N 43°42' W 081°48'4 4.3 150 / 71019.3 0.4-0.6
2018-Jan-21 14:00N 43°42' W 081°42'0 0.0
2018-Jan-21 13:00N 43°42' W 081°42'4 4.3 160 / 91019.1 -0.4-1.4
2018-Jan-21 12:00N 43°42' W 081°48'1313.0 170 / 101018.7 -0.6-1.1
2018-Jan-21 11:00N 43°42' W 082°06'4 4.3 200 / 91018.4 1.0 0.1
2018-Jan-21 10:00N 43°42' W 082°12'4 4.3 210 / 81018.0 1.0-0.2
2018-Jan-21 09:00N 43°42' W 082°18'6 6.0 200 / 71017.9 1.6-0.7
2018-Jan-21 08:00N 43°36' W 082°18'1212.0 190 / 71017.9 1.0-1.2
2018-Jan-21 07:00N 43°24' W 082°18'7 7.4 210 / 111017.8 2.6-0.6
2018-Jan-21 06:00N 43°18' W 082°24'6 6.0 200 / 81017.3 2.2-0.7
2018-Jan-21 05:00N 43°12' W 082°24'6 6.0 200 / 81017.5 2.1-0.9
2018-Jan-21 04:00N 43°06' W 082°24'1212.0 200 / 81017.4 2.2-1.1
2018-Jan-21 03:00N 42°54' W 082°24'0 0.0 230 / 11017.6 1.4-1.1
2018-Jan-21 02:00N 42°54' W 082°24'0 0.0 1017.3 1.8-1.1
2018-Jan-21 01:00N 42°54' W 082°24'4 4.4 230 / 11017.1 2.4-1.1
2018-Jan-21 00:00N 42°54' W 082°30'1212.0 200 / 81016.7 2.5-1.2
2018-Jan-20 23:00N 42°42' W 082°30'0 0.0 200 / 8 3.3-0.6
2018-Jan-20 22:00N 42°42' W 082°30'0 0.0 200 / 71014.9 4.2-1.0
2018-Jan-20 21:00N 42°42' W 082°30'0 0.0 200 / 111014.4 4.2-1.1
2018-Jan-20 20:00N 42°42' W 082°30'0 0.0 220 / 10 4.6-1.7
2018-Jan-20 19:00N 42°42' W 082°30'6 6.0 200 / 11 4.9-1.9
2018-Jan-20 18:00N 42°36' W 082°30'7 7.5 210 / 121014.1 3.1-1.6
2018-Jan-20 17:00N 42°30' W 082°36'7 7.5 200 / 141014.1 1.7-2.2
2018-Jan-20 16:00N 42°36' W 082°30'6 6.0 220 / 121013.9 1.9-2.6
2018-Jan-20 15:00N 42°42' W 082°30'0 0.0 230 / 8 2.2-3.0
2018-Jan-20 14:00N 42°42' W 082°30'0 0.0 210 / 71011.9 1.1-3.3
2018-Jan-20 13:00N 42°42' W 082°30'1312.8 200 / 101011.8 0.1-3.4
2018-Jan-20 12:00N 42°30' W 082°36'0 0.0 230 / 151010.8 -0.1-2.8
2018-Jan-20 11:00N 42°30' W 082°36'0 0.0 230 / 171010.3 0.4-2.6
2018-Jan-20 10:00N 42°30' W 082°36'0 0.0 230 / 151009.6 0.5-2.6
2018-Jan-20 09:00N 42°30' W 082°36'0 0.0 230 / 161009.2 0.6-2.8
2018-Jan-20 08:00N 42°30' W 082°36'0 0.0 230 / 171008.8 1.0-2.8
2018-Jan-20 07:00N 42°30' W 082°36'0 0.0 230 / 181007.8 0.9-3.0
2018-Jan-20 06:00N 42°30' W 082°36'0 0.0 230 / 201007.8 1.3-3.0
2018-Jan-20 05:00N 42°30' W 082°36'0 0.0 240 / 211007.9 2.2-3.0
2018-Jan-20 04:00N 42°30' W 082°36'4 4.4 230 / 211007.7 1.4-2.9
2018-Jan-20 03:00N 42°30' W 082°42'1110.7 220 / 211007.9 1.7-2.7
2018-Jan-20 02:00N 42°24' W 082°54'1110.7 220 / 191009.1 1.7-3.7
2018-Jan-20 01:00N 42°30' W 082°42'7 7.5 200 / 221009.2 0.2-3.7
2018-Jan-20 00:00N 42°36' W 082°36'7 7.4 190 / 191009.7 -0.2-4.5
2018-Jan-19 23:00N 42°42' W 082°30'0 0.0 190 / 15 -0.1-4.8
2018-Jan-19 22:00N 42°42' W 082°30'7 7.4 190 / 131010.8 0.7-4.6
2018-Jan-19 21:00N 42°36' W 082°36'6 6.0 190 / 111011.3 0.5-4.6
2018-Jan-19 20:00N 42°30' W 082°36'0 0.0 190 / 171011.2 -0.2-4.5
2018-Jan-19 19:00N 42°30' W 082°36'7 7.5 200 / 151011.7 -0.2-5.6
2018-Jan-19 18:00N 42°36' W 082°30'0 0.0 210 / 131012.6 0.4-5.8
2018-Jan-19 17:00N 42°36' W 082°30'0 0.0 200 / 31013.8 -1.1-6.6
2018-Jan-19 16:00N 42°36' W 082°30'6 6.0 220 / 121014.6 -1.5-7.0
2018-Jan-19 15:00N 42°42' W 082°30'6 6.0 200 / 121014.1 -4.1-8.6
2018-Jan-19 14:00N 42°48' W 082°30'6 6.0 180 / 91014.7 -4.9-8.9
2018-Jan-19 13:00N 42°54' W 082°30'0 0.0 190 / 131014.4 -5.0-8.4
2018-Jan-19 12:00N 42°54' W 082°30'6 6.0 200 / 101015.1 -4.9-8.3
2018-Jan-19 11:00N 42°48' W 082°30'1212.0 210 / 10 -3.8-8.1
2018-Jan-19 10:00N 42°36' W 082°30'1110.7 210 / 111016.0 -5.2-8.6
2018-Jan-19 09:00N 42°30' W 082°42'1514.9 190 / 131015.0 -5.7-8.7
2018-Jan-19 08:00N 42°42' W 082°30'0 0.0 200 / 8 -4.6-9.1
2018-Jan-19 07:00N 42°42' W 082°30'1312.8 210 / 91014.7 -4.7-9.1
2018-Jan-19 06:00N 42°30' W 082°36'6 6.0 240 / 131015.3 -3.6-8.1
2018-Jan-19 05:00N 42°36' W 082°36'7 7.4 230 / 131014.4 -3.9-8.9
2018-Jan-19 04:00N 42°42' W 082°30'13 6.4 210 / 9 -3.3-8.9
2018-Jan-19 02:00N 42°30' W 082°36'1312.8 220 / 161015.7 -4.5-8.3
2018-Jan-19 01:00N 42°42' W 082°30'6 6.0 200 / 12 -4.5-7.9
2018-Jan-19 00:00N 42°36' W 082°30'1110.7 210 / 141016.4 -4.7-7.8
2018-Jan-18 23:00N 42°30' W 082°42'1110.7 190 / 181016.1 -4.3-7.4
2018-Jan-18 22:00N 42°36' W 082°30'1212.0 200 / 12 -3.9-8.6
2018-Jan-18 21:00N 42°48' W 082°30'0 0.0 190 / 111015.7 -3.3-8.7
2018-Jan-18 20:00N 42°48' W 082°30'12 6.0 200 / 12 -1.4-8.2
2018-Jan-18 18:00N 42°36' W 082°30'4 4.4 210 / 121018.4 -4.9-9.9
2018-Jan-18 17:00N 42°36' W 082°36'0 0.0 210 / 81019.9 -1.7-7.4
2018-Jan-18 16:00N 42°36' W 082°36'0 0.0 220 / 111020.2 2.8-5.3
2018-Jan-18 15:00N 42°36' W 082°36'6 6.0 220 / 111020.3 -7.9-11.0
2018-Jan-18 14:00N 42°30' W 082°36'1110.7 220 / 141020.3 -9.0-11.7
2018-Jan-18 13:00N 42°24' W 082°48'7 7.5 220 / 171020.2 -8.5-11.8
2018-Jan-18 12:00N 42°18' W 082°54'4 4.4 230 / 111020.4 -9.2-12.5
2018-Jan-18 11:00N 42°18' W 083°00'0 0.0 240 / 131020.3 -9.0-12.4
2018-Jan-18 10:00N 42°18' W 083°00'0 0.0 240 / 141020.4 -8.7-12.0
2018-Jan-18 09:00N 42°18' W 083°00'0 0.0 240 / 171020.4 -8.7-12.4
2018-Jan-18 08:00N 42°18' W 083°00'0 0.0 240 / 171020.3 -8.4-12.4
2018-Jan-18 07:00N 42°18' W 083°00'0 0.0 230 / 231020.4 -8.1-12.7
2018-Jan-18 06:00N 42°18' W 083°00'0 0.0 240 / 211021.0 -7.4-12.2
2018-Jan-18 05:00N 42°18' W 083°00'0 0.0 240 / 181021.8 -7.4-11.8
2018-Jan-18 04:00N 42°18' W 083°00'0 0.0 230 / 181022.6 -7.1-11.7
2018-Jan-18 03:00N 42°18' W 083°00'0 0.0 240 / 171023.7 -7.1-11.7
2018-Jan-18 02:00N 42°18' W 083°00'0 0.0 230 / 131024.8 -6.3-10.9
2018-Jan-18 01:00N 42°18' W 083°00'0 0.0 240 / 141025.5 -6.2-10.4
2018-Jan-18 00:00N 42°18' W 083°00'7 7.5 200 / 151026.2 -6.8-10.8
2018-Jan-17 23:00N 42°24' W 082°54'7 7.5 220 / 191026.4 -5.2-8.9
2018-Jan-17 22:00N 42°30' W 082°48'9 8.8 200 / 191026.8 -6.3-9.4
2018-Jan-17 21:00N 42°30' W 082°36'6 6.0 190 / 181027.1 -7.1-9.6
2018-Jan-17 20:00N 42°36' W 082°36'4 4.4 210 / 91028.1 -5.7-9.6
2018-Jan-17 19:00N 42°36' W 082°30'6 6.0 210 / 141028.3 -7.9-12.2
2018-Jan-17 18:00N 42°42' W 082°30'1212.0 210 / 10 -7.1-12.2
2018-Jan-17 17:00N 42°54' W 082°30'7 7.4 200 / 71030.7 -8.8-12.8
2018-Jan-17 16:00N 43°00' W 082°24'0 0.0 220 / 81031.7 -10.8-14.3
2018-Jan-17 15:00N 43°00' W 082°24'0 0.0 210 / 71032.0 -12.3-15.0
2018-Jan-17 14:00N 43°00' W 082°24'6 6.0 230 / 71031.9 -13.9-15.8
2018-Jan-17 13:00N 43°06' W 082°24'1212.0 220 / 81032.2 -15.2-17.1
2018-Jan-17 12:00N 42°54' W 082°24'7 7.4 220 / 91032.4 -13.7-15.0
2018-Jan-17 11:00N 42°48' W 082°30'6 6.0 210 / 61032.7 -14.9-16.4
2018-Jan-17 10:00N 42°42' W 082°30'0 0.0 230 / 3 -12.2-14.3
2018-Jan-17 09:00N 42°42' W 082°30'0 0.0 240 / 4 -12.6-15.0
2018-Jan-17 08:00N 42°42' W 082°30'0 0.0 250 / 3 -12.6-14.8
2018-Jan-17 07:00N 42°42' W 082°30'0 0.0 250 / 3 -11.7-14.1
2018-Jan-17 06:00N 42°42' W 082°30'0 0.0 250 / 1 -10.8-13.1
2018-Jan-17 05:00N 42°42' W 082°30'0 0.0 260 / 3 -10.1-12.4
2018-Jan-17 04:00N 42°42' W 082°30'0 0.0 240 / 6 -9.8-11.5
2018-Jan-17 03:00N 42°42' W 082°30'0 0.0 240 / 71031.1 -10.1-11.4
2018-Jan-17 02:00N 42°42' W 082°30'0 0.0 220 / 7 -9.3-10.7
2018-Jan-17 01:00N 42°42' W 082°30'0 0.0 210 / 51030.9 -5.8-8.8
2018-Jan-17 00:00N 42°42' W 082°30'0 0.0 210 / 5 -9.1-10.5
2018-Jan-16 23:00N 42°42' W 082°30'7 7.4 230 / 41030.1 -8.4-10.8
2018-Jan-16 22:00N 42°36' W 082°36'6 6.0 230 / 81029.6 -5.3-9.1
2018-Jan-16 21:00N 42°30' W 082°36'4 4.4 210 / 91029.3 -6.7-10.2
2018-Jan-16 20:00N 42°30' W 082°42'7 0.6 230 / 91029.7 -0.8-6.7
2018-Jan-16 07:00N 42°36' W 082°36'0 0.0 240 / 21026.7 -6.3-7.0
2018-Jan-16 06:00N 42°36' W 082°36'0 0.0 210 / 31026.6 -6.9-7.2
2018-Jan-16 05:00N 42°36' W 082°36'7 2.5 220 / 11026.3 -6.9-7.4
2018-Jan-16 02:00N 42°42' W 082°30'6 6.0 140 / 11026.1 -6.2-7.3
2018-Jan-16 01:00N 42°36' W 082°30'6 6.0 080 / 31026.1 -6.9-7.8
2018-Jan-16 00:00N 42°42' W 082°30'6 6.0 100 / 41004.0 -6.3-7.6
2018-Jan-15 23:00N 42°36' W 082°30'6 6.0 100 / 61026.1 -7.2-8.4
2018-Jan-15 22:00N 42°42' W 082°30'6 6.0 110 / 4 -7.1-8.7
2018-Jan-15 21:00N 42°48' W 082°30'7 7.4 110 / 121026.0 -7.6-9.9
2018-Jan-15 20:00N 42°54' W 082°24'4 1.5 090 / 81026.0 -8.1-10.5
2018-Jan-15 17:00N 42°54' W 082°30'1212.0 140 / 101029.5 -8.7-11.6
2018-Jan-15 16:00N 42°42' W 082°30'0 0.0 130 / 10 -9.2-11.8
2018-Jan-15 15:00N 42°42' W 082°30'0 0.0 130 / 81030.1 -9.2-12.6
2018-Jan-15 14:00N 42°42' W 082°30'0 0.0 130 / 91030.3 -8.4-12.7
2018-Jan-15 13:00N 42°42' W 082°30'0 0.0 130 / 91030.4 -9.2-13.2
2018-Jan-15 12:00N 42°42' W 082°30'0 0.0 120 / 9 -8.8-12.2
2018-Jan-15 11:00N 42°42' W 082°30'0 0.0 120 / 6 -8.7-13.2
2018-Jan-15 10:00N 42°42' W 082°30'0 0.0 120 / 6 -9.0-12.9
2018-Jan-15 09:00N 42°42' W 082°30'0 0.0 140 / 5 -9.1-13.2
2018-Jan-15 08:00N 42°42' W 082°30'0 0.0 120 / 4 -9.6-13.5
2018-Jan-15 07:00N 42°42' W 082°30'0 0.0 140 / 3 -9.5-12.9
2018-Jan-15 06:00N 42°42' W 082°30'0 0.0 120 / 4 -9.4-13.1
2018-Jan-15 05:00N 42°42' W 082°30'0 0.0 140 / 5 -9.2-13.5
2018-Jan-15 04:00N 42°42' W 082°30'0 0.0 140 / 5 -9.1-13.1
2018-Jan-15 03:00N 42°42' W 082°30'6 6.0 130 / 6 -9.4-14.2
2018-Jan-15 02:00N 42°36' W 082°30'6 6.0 140 / 41036.0 -8.7-13.9
2018-Jan-15 01:00N 42°42' W 082°30'0 0.0 150 / 9 -8.9-14.2
2018-Jan-15 00:00N 42°42' W 082°30'0 0.0 140 / 91036.1 -8.5-14.2
2018-Jan-14 23:00N 42°42' W 082°30'7 7.4 150 / 81036.2 -4.7-11.6
2018-Jan-14 22:00N 42°36' W 082°36'7 7.5 180 / 61036.8 -8.5-15.6
2018-Jan-14 21:00N 42°30' W 082°42'0 0.0 200 / 81036.9 -8.1-15.5
2018-Jan-14 20:00N 42°30' W 082°42'4 4.4 150 / 101037.2 -8.5-15.3
2018-Jan-14 19:00N 42°30' W 082°36'0 0.0 170 / 71038.0 -8.9-13.9
2018-Jan-14 18:00N 42°30' W 082°36'0 0.0 180 / 81038.9 -8.8-14.5
2018-Jan-14 17:00N 42°30' W 082°36'0 0.0 190 / 41040.0 -8.8-13.7
2018-Jan-14 16:00N 42°30' W 082°36'7 7.5 200 / 31040.6 -8.9-15.1
2018-Jan-14 15:00N 42°36' W 082°30'6 6.0 190 / 31040.4 -9.5-12.9
2018-Jan-14 14:00N 42°42' W 082°30'15 7.5 180 / 21017.5 -12.0-13.2
2018-Jan-14 12:00N 42°30' W 082°42'1110.7 180 / 31039.6 -11.6-13.6
2018-Jan-14 11:00N 42°36' W 082°30'0 0.0 270 / 11039.1 -13.5-15.2
2018-Jan-14 10:00N 42°36' W 082°30'0 0.0 1038.9 -13.0-14.8
2018-Jan-14 09:00N 42°36' W 082°30'0 0.0 230 / 11038.8 -12.5-15.1
2018-Jan-14 08:00N 42°36' W 082°30'   250 / 21038.7 -13.5-15.6
Track history (hours):
 
Tides and Currents Weather Stations Pressure Air Temp Water Temp Dewpoint Dewpoint Depression Visibility Wind Speed Wind Dir Waves Ship Positions

CCGS Samuel Risley (Canada)

Medium Navaids Tender - Light Icebreaker

Last reported at 2018-Jan-24 08:00 UTC. Time now 2018-Jan-24 09:30 UTC.
Position N 42°36' W 082°30'.

Length 69.73 m; beam 13.7 m; draft 5.2 m.

Type: SAR. MMSI: 316001890.

Wind from 330 at 1 knots

Barometer 1019.0 mb
Air temperature -2.9 ° C
Dewpoint -6.1 ° C

Date/timePositionNaut miles runAvg speedWind from/ knotsBaromVisibWave heightAir tempDewpointWater temp
2018-Jan-24 08:00N 42°36' W 082°30'0 0.0 330 / 11019.0 -2.9-6.1
2018-Jan-24 07:00N 42°36' W 082°30'0 0.0 340 / 11017.8 -3.3-6.6
2018-Jan-24 06:00N 42°36' W 082°30'0 0.0 350 / 21017.3 -3.8-7.4
2018-Jan-24 05:00N 42°36' W 082°30'0 0.0 340 / 31016.7 -3.8-7.8
2018-Jan-24 04:00N 42°36' W 082°30'0 0.0 300 / 31015.4 -2.7-6.3
2018-Jan-24 03:00N 42°36' W 082°30'0 0.0 310 / 31014.3 -2.3-6.1
2018-Jan-24 02:00N 42°36' W 082°30'7 7.5 300 / 31012.8 -1.2-5.0
2018-Jan-24 01:00N 42°30' W 082°36'6 6.0 260 / 111011.7 -0.8-3.5
2018-Jan-24 00:00N 42°36' W 082°36'6 6.0 260 / 101010.3 -0.6-3.0
2018-Jan-23 23:00N 42°30' W 082°36'1312.8 290 / 101008.2 -0.3-0.8
2018-Jan-23 22:00N 42°42' W 082°30'1312.8 290 / 121006.1 1.0-1.2
2018-Jan-23 21:00N 42°30' W 082°36'1110.7 270 / 151004.5 4.2-1.0
2018-Jan-23 20:00N 42°24' W 082°48'0 0.0 260 / 181002.7 2.8-1.6
2018-Jan-23 19:00N 42°24' W 082°48'0 0.0 260 / 201001.8 3.1-1.1
2018-Jan-23 18:00N 42°24' W 082°48'0 0.0 230 / 141001.6 6.6 1.7
2018-Jan-23 17:00N 42°24' W 082°48'7 7.5 230 / 191001.4 2.7 0.6
2018-Jan-23 16:00N 42°30' W 082°42'1110.7 220 / 191001.6 1.7 0.9
2018-Jan-23 15:00N 42°36' W 082°30'6 6.0 210 / 151000.8 1.9 1.1
2018-Jan-23 14:00N 42°42' W 082°30'0 0.0 230 / 8 2.5 1.7
2018-Jan-23 13:00N 42°42' W 082°30'6 6.0 220 / 9 3.9 2.2
2018-Jan-23 12:00N 42°36' W 082°30'0 0.0 220 / 15999.6 6.7 3.8
2018-Jan-23 11:00N 42°36' W 082°30'0 0.0 200 / 11999.2 3.8 3.4
2018-Jan-23 10:00N 42°36' W 082°30'0 0.0 220 / 7998.9 6.5 4.7
2018-Jan-23 09:00N 42°36' W 082°30'0 0.0 210 / 13999.1 6.0 5.6
2018-Jan-23 08:00N 42°36' W 082°30'0 0.0 210 / 8999.0 5.5 5.4
2018-Jan-23 07:00N 42°36' W 082°30'0 0.0 190 / 10999.7 7.3 6.3
2018-Jan-23 06:00N 42°36' W 082°30'0 0.0 160 / 6998.8 8.5 7.5
2018-Jan-23 05:00N 42°36' W 082°30'0 0.0 190 / 141000.5 8.8 8.5
2018-Jan-23 04:00N 42°36' W 082°30'0 0.0 210 / 31001.0 8.2 7.9
2018-Jan-23 03:00N 42°36' W 082°30'0 0.0 150 / 41002.3 8.1 7.4
2018-Jan-23 02:00N 42°36' W 082°30'0 0.0 170 / 71003.4 8.5 7.4
2018-Jan-23 01:00N 42°36' W 082°30'1110.7 170 / 71004.1 8.7 7.8
2018-Jan-23 00:00N 42°30' W 082°42'4 4.4 150 / 131004.1 4.8 4.7
2018-Jan-22 23:00N 42°30' W 082°36'0 0.0 140 / 121004.3 6.1 5.4
2018-Jan-22 22:00N 42°30' W 082°36'7 7.5 130 / 81004.5 6.9 5.7
2018-Jan-22 21:00N 42°36' W 082°30'4 4.4 170 / 111005.2 9.5 6.4
2018-Jan-22 20:00N 42°36' W 082°36'1110.7 170 / 111005.7 8.4 6.3
2018-Jan-22 19:00N 42°30' W 082°48'6 6.0 190 / 131006.7 7.3 5.4
2018-Jan-22 18:00N 42°24' W 082°48'7 7.5 110 / 71008.0 4.8 4.7
2018-Jan-22 17:00N 42°30' W 082°42'7 7.5 090 / 71010.4 4.1 4.0
2018-Jan-22 16:00N 42°36' W 082°36'7 7.4 120 / 71011.2 6.2 6.2
2018-Jan-22 15:00N 42°42' W 082°30'6 6.0 120 / 8 4.1 4.1
2018-Jan-22 14:00N 42°48' W 082°30'7 7.4 100 / 61012.9 3.1 3.0
2018-Jan-22 13:00N 42°54' W 082°24'1212.0 100 / 91013.2 2.4 2.4
2018-Jan-22 12:00N 43°06' W 082°24'1312.8 030 / 91014.6 0.5 0.5
2018-Jan-22 11:00N 43°18' W 082°18'6 6.0 020 / 81015.1 1.2 1.2
2018-Jan-22 10:00N 43°24' W 082°18'7 7.4 030 / 91016.2 0.7 0.6
2018-Jan-22 09:00N 43°30' W 082°12'0 0.0 050 / 71016.5 1.0 1.0
2018-Jan-22 08:00N 43°30' W 082°12'0 0.0 060 / 81017.1 1.0 0.9
2018-Jan-22 07:00N 43°30' W 082°12'0 0.0 060 / 81017.3 0.9 0.8
2018-Jan-22 05:00N 43°30' W 082°12'7 7.4 120 / 31018.2 1.0 0.9
2018-Jan-22 04:00N 43°36' W 082°06'7 7.4 120 / 61018.3 0.9 0.8
2018-Jan-22 03:00N 43°42' W 082°00'4 4.3 140 / 51018.3 1.2 1.1
2018-Jan-22 02:00N 43°42' W 081°54'4 4.3 170 / 71018.5 0.7 0.6
2018-Jan-22 01:00N 43°42' W 081°48'4 4.3 170 / 31018.5 1.4 1.3
2018-Jan-22 00:00N 43°42' W 081°42'4 4.3 140 / 41017.9 1.6 1.3
2018-Jan-21 23:00N 43°42' W 081°48'4 4.3 140 / 51017.8 1.5 1.4
2018-Jan-21 22:00N 43°42' W 081°42'0 0.0 110 / 61017.5 1.7 1.4
2018-Jan-21 21:00N 43°42' W 081°42'0 0.0 100 / 31017.6 5.0 2.4
2018-Jan-21 20:00N 43°42' W 081°42'0 0.0 110 / 41017.7 2.5 1.5
2018-Jan-21 19:00N 43°42' W 081°42'0 0.0 150 / 41018.0 2.3 0.8
2018-Jan-21 18:00N 43°42' W 081°42'0 0.0 130 / 21018.2 3.7 0.7
2018-Jan-21 17:00N 43°42' W 081°42'0 0.0 150 / 61019.1 1.8 0.1
2018-Jan-21 16:00N 43°42' W 081°42'4 4.3 160 / 41019.5 3.4 0.1
2018-Jan-21 15:00N 43°42' W 081°48'4 4.3 150 / 71019.3 0.4-0.6
2018-Jan-21 14:00N 43°42' W 081°42'0 0.0
2018-Jan-21 13:00N 43°42' W 081°42'4 4.3 160 / 91019.1 -0.4-1.4
2018-Jan-21 12:00N 43°42' W 081°48'1313.0 170 / 101018.7 -0.6-1.1
2018-Jan-21 11:00N 43°42' W 082°06'4 4.3 200 / 91018.4 1.0 0.1
2018-Jan-21 10:00N 43°42' W 082°12'4 4.3 210 / 81018.0 1.0-0.2
2018-Jan-21 09:00N 43°42' W 082°18'6 6.0 200 / 71017.9 1.6-0.7
2018-Jan-21 08:00N 43°36' W 082°18'1212.0 190 / 71017.9 1.0-1.2
2018-Jan-21 07:00N 43°24' W 082°18'7 7.4 210 / 111017.8 2.6-0.6
2018-Jan-21 06:00N 43°18' W 082°24'6 6.0 200 / 81017.3 2.2-0.7
2018-Jan-21 05:00N 43°12' W 082°24'6 6.0 200 / 81017.5 2.1-0.9
2018-Jan-21 04:00N 43°06' W 082°24'1212.0 200 / 81017.4 2.2-1.1
2018-Jan-21 03:00N 42°54' W 082°24'0 0.0 230 / 11017.6 1.4-1.1
2018-Jan-21 02:00N 42°54' W 082°24'0 0.0 1017.3 1.8-1.1
2018-Jan-21 01:00N 42°54' W 082°24'4 4.4 230 / 11017.1 2.4-1.1
2018-Jan-21 00:00N 42°54' W 082°30'1212.0 200 / 81016.7 2.5-1.2
2018-Jan-20 23:00N 42°42' W 082°30'0 0.0 200 / 8 3.3-0.6
2018-Jan-20 22:00N 42°42' W 082°30'0 0.0 200 / 71014.9 4.2-1.0
2018-Jan-20 21:00N 42°42' W 082°30'0 0.0 200 / 111014.4 4.2-1.1
2018-Jan-20 20:00N 42°42' W 082°30'0 0.0 220 / 10 4.6-1.7
2018-Jan-20 19:00N 42°42' W 082°30'6 6.0 200 / 11 4.9-1.9
2018-Jan-20 18:00N 42°36' W 082°30'7 7.5 210 / 121014.1 3.1-1.6
2018-Jan-20 17:00N 42°30' W 082°36'7 7.5 200 / 141014.1 1.7-2.2
2018-Jan-20 16:00N 42°36' W 082°30'6 6.0 220 / 121013.9 1.9-2.6
2018-Jan-20 15:00N 42°42' W 082°30'0 0.0 230 / 8 2.2-3.0
2018-Jan-20 14:00N 42°42' W 082°30'0 0.0 210 / 71011.9 1.1-3.3
2018-Jan-20 13:00N 42°42' W 082°30'1312.8 200 / 101011.8 0.1-3.4
2018-Jan-20 12:00N 42°30' W 082°36'0 0.0 230 / 151010.8 -0.1-2.8
2018-Jan-20 11:00N 42°30' W 082°36'0 0.0 230 / 171010.3 0.4-2.6
2018-Jan-20 10:00N 42°30' W 082°36'0 0.0 230 / 151009.6 0.5-2.6
2018-Jan-20 09:00N 42°30' W 082°36'0 0.0 230 / 161009.2 0.6-2.8
2018-Jan-20 08:00N 42°30' W 082°36'0 0.0 230 / 171008.8 1.0-2.8
2018-Jan-20 07:00N 42°30' W 082°36'0 0.0 230 / 181007.8 0.9-3.0
2018-Jan-20 06:00N 42°30' W 082°36'0 0.0 230 / 201007.8 1.3-3.0
2018-Jan-20 05:00N 42°30' W 082°36'0 0.0 240 / 211007.9 2.2-3.0
2018-Jan-20 04:00N 42°30' W 082°36'4 4.4 230 / 211007.7 1.4-2.9
2018-Jan-20 03:00N 42°30' W 082°42'1110.7 220 / 211007.9 1.7-2.7
2018-Jan-20 02:00N 42°24' W 082°54'1110.7 220 / 191009.1 1.7-3.7
2018-Jan-20 01:00N 42°30' W 082°42'7 7.5 200 / 221009.2 0.2-3.7
2018-Jan-20 00:00N 42°36' W 082°36'7 7.4 190 / 191009.7 -0.2-4.5
2018-Jan-19 23:00N 42°42' W 082°30'0 0.0 190 / 15 -0.1-4.8
2018-Jan-19 22:00N 42°42' W 082°30'7 7.4 190 / 131010.8 0.7-4.6
2018-Jan-19 21:00N 42°36' W 082°36'6 6.0 190 / 111011.3 0.5-4.6
2018-Jan-19 20:00N 42°30' W 082°36'0 0.0 190 / 171011.2 -0.2-4.5
2018-Jan-19 19:00N 42°30' W 082°36'7 7.5 200 / 151011.7 -0.2-5.6
2018-Jan-19 18:00N 42°36' W 082°30'0 0.0 210 / 131012.6 0.4-5.8
2018-Jan-19 17:00N 42°36' W 082°30'0 0.0 200 / 31013.8 -1.1-6.6
2018-Jan-19 16:00N 42°36' W 082°30'6 6.0 220 / 121014.6 -1.5-7.0
2018-Jan-19 15:00N 42°42' W 082°30'6 6.0 200 / 121014.1 -4.1-8.6
2018-Jan-19 14:00N 42°48' W 082°30'6 6.0 180 / 91014.7 -4.9-8.9
2018-Jan-19 13:00N 42°54' W 082°30'0 0.0 190 / 131014.4 -5.0-8.4
2018-Jan-19 12:00N 42°54' W 082°30'6 6.0 200 / 101015.1 -4.9-8.3
2018-Jan-19 11:00N 42°48' W 082°30'1212.0 210 / 10 -3.8-8.1
2018-Jan-19 10:00N 42°36' W 082°30'1110.7 210 / 111016.0 -5.2-8.6
2018-Jan-19 09:00N 42°30' W 082°42'1514.9 190 / 131015.0 -5.7-8.7
2018-Jan-19 08:00N 42°42' W 082°30'0 0.0 200 / 8 -4.6-9.1
2018-Jan-19 07:00N 42°42' W 082°30'1312.8 210 / 91014.7 -4.7-9.1
2018-Jan-19 06:00N 42°30' W 082°36'6 6.0 240 / 131015.3 -3.6-8.1
2018-Jan-19 05:00N 42°36' W 082°36'7 7.4 230 / 131014.4 -3.9-8.9
2018-Jan-19 04:00N 42°42' W 082°30'13 6.4 210 / 9 -3.3-8.9
2018-Jan-19 02:00N 42°30' W 082°36'1312.8 220 / 161015.7 -4.5-8.3
2018-Jan-19 01:00N 42°42' W 082°30'6 6.0 200 / 12 -4.5-7.9
2018-Jan-19 00:00N 42°36' W 082°30'1110.7 210 / 141016.4 -4.7-7.8
2018-Jan-18 23:00N 42°30' W 082°42'1110.7 190 / 181016.1 -4.3-7.4
2018-Jan-18 22:00N 42°36' W 082°30'1212.0 200 / 12 -3.9-8.6
2018-Jan-18 21:00N 42°48' W 082°30'0 0.0 190 / 111015.7 -3.3-8.7
2018-Jan-18 20:00N 42°48' W 082°30'12 6.0 200 / 12 -1.4-8.2
2018-Jan-18 18:00N 42°36' W 082°30'4 4.4 210 / 121018.4 -4.9-9.9
2018-Jan-18 17:00N 42°36' W 082°36'0 0.0 210 / 81019.9 -1.7-7.4
2018-Jan-18 16:00N 42°36' W 082°36'0 0.0 220 / 111020.2 2.8-5.3
2018-Jan-18 15:00N 42°36' W 082°36'6 6.0 220 / 111020.3 -7.9-11.0
2018-Jan-18 14:00N 42°30' W 082°36'1110.7 220 / 141020.3 -9.0-11.7
2018-Jan-18 13:00N 42°24' W 082°48'7 7.5 220 / 171020.2 -8.5-11.8
2018-Jan-18 12:00N 42°18' W 082°54'4 4.4 230 / 111020.4 -9.2-12.5
2018-Jan-18 11:00N 42°18' W 083°00'0 0.0 240 / 131020.3 -9.0-12.4
2018-Jan-18 10:00N 42°18' W 083°00'0 0.0 240 / 141020.4 -8.7-12.0
2018-Jan-18 09:00N 42°18' W 083°00'0 0.0 240 / 171020.4 -8.7-12.4
2018-Jan-18 08:00N 42°18' W 083°00'0 0.0 240 / 171020.3 -8.4-12.4
2018-Jan-18 07:00N 42°18' W 083°00'0 0.0 230 / 231020.4 -8.1-12.7
2018-Jan-18 06:00N 42°18' W 083°00'0 0.0 240 / 211021.0 -7.4-12.2
2018-Jan-18 05:00N 42°18' W 083°00'0 0.0 240 / 181021.8 -7.4-11.8
2018-Jan-18 04:00N 42°18' W 083°00'0 0.0 230 / 181022.6 -7.1-11.7
2018-Jan-18 03:00N 42°18' W 083°00'0 0.0 240 / 171023.7 -7.1-11.7
2018-Jan-18 02:00N 42°18' W 083°00'0 0.0 230 / 131024.8 -6.3-10.9
2018-Jan-18 01:00N 42°18' W 083°00'0 0.0 240 / 141025.5 -6.2-10.4
2018-Jan-18 00:00N 42°18' W 083°00'7 7.5 200 / 151026.2 -6.8-10.8
2018-Jan-17 23:00N 42°24' W 082°54'7 7.5 220 / 191026.4 -5.2-8.9
2018-Jan-17 22:00N 42°30' W 082°48'9 8.8 200 / 191026.8 -6.3-9.4
2018-Jan-17 21:00N 42°30' W 082°36'6 6.0 190 / 181027.1 -7.1-9.6
2018-Jan-17 20:00N 42°36' W 082°36'4 4.4 210 / 91028.1 -5.7-9.6
2018-Jan-17 19:00N 42°36' W 082°30'6 6.0 210 / 141028.3 -7.9-12.2
2018-Jan-17 18:00N 42°42' W 082°30'1212.0 210 / 10 -7.1-12.2
2018-Jan-17 17:00N 42°54' W 082°30'7 7.4 200 / 71030.7 -8.8-12.8
2018-Jan-17 16:00N 43°00' W 082°24'0 0.0 220 / 81031.7 -10.8-14.3
2018-Jan-17 15:00N 43°00' W 082°24'0 0.0 210 / 71032.0 -12.3-15.0
2018-Jan-17 14:00N 43°00' W 082°24'6 6.0 230 / 71031.9 -13.9-15.8
2018-Jan-17 13:00N 43°06' W 082°24'1212.0 220 / 81032.2 -15.2-17.1
2018-Jan-17 12:00N 42°54' W 082°24'7 7.4 220 / 91032.4 -13.7-15.0
2018-Jan-17 11:00N 42°48' W 082°30'6 6.0 210 / 61032.7 -14.9-16.4
2018-Jan-17 10:00N 42°42' W 082°30'0 0.0 230 / 3 -12.2-14.3
2018-Jan-17 09:00N 42°42' W 082°30'0 0.0 240 / 4 -12.6-15.0
2018-Jan-17 08:00N 42°42' W 082°30'0 0.0 250 / 3 -12.6-14.8
2018-Jan-17 07:00N 42°42' W 082°30'0 0.0 250 / 3 -11.7-14.1
2018-Jan-17 06:00N 42°42' W 082°30'0 0.0 250 / 1 -10.8-13.1
2018-Jan-17 05:00N 42°42' W 082°30'0 0.0 260 / 3 -10.1-12.4
2018-Jan-17 04:00N 42°42' W 082°30'0 0.0 240 / 6 -9.8-11.5
2018-Jan-17 03:00N 42°42' W 082°30'0 0.0 240 / 71031.1 -10.1-11.4
2018-Jan-17 02:00N 42°42' W 082°30'0 0.0 220 / 7 -9.3-10.7
2018-Jan-17 01:00N 42°42' W 082°30'0 0.0 210 / 51030.9 -5.8-8.8
2018-Jan-17 00:00N 42°42' W 082°30'0 0.0 210 / 5 -9.1-10.5
2018-Jan-16 23:00N 42°42' W 082°30'7 7.4 230 / 41030.1 -8.4-10.8
2018-Jan-16 22:00N 42°36' W 082°36'6 6.0 230 / 81029.6 -5.3-9.1
2018-Jan-16 21:00N 42°30' W 082°36'4 4.4 210 / 91029.3 -6.7-10.2
2018-Jan-16 20:00N 42°30' W 082°42'7 0.6 230 / 91029.7 -0.8-6.7
2018-Jan-16 07:00N 42°36' W 082°36'0 0.0 240 / 21026.7 -6.3-7.0
2018-Jan-16 06:00N 42°36' W 082°36'0 0.0 210 / 31026.6 -6.9-7.2
2018-Jan-16 05:00N 42°36' W 082°36'7 2.5 220 / 11026.3 -6.9-7.4
2018-Jan-16 02:00N 42°42' W 082°30'6 6.0 140 / 11026.1 -6.2-7.3
2018-Jan-16 01:00N 42°36' W 082°30'6 6.0 080 / 31026.1 -6.9-7.8
2018-Jan-16 00:00N 42°42' W 082°30'6 6.0 100 / 41004.0 -6.3-7.6
2018-Jan-15 23:00N 42°36' W 082°30'6 6.0 100 / 61026.1 -7.2-8.4
2018-Jan-15 22:00N 42°42' W 082°30'6 6.0 110 / 4 -7.1-8.7
2018-Jan-15 21:00N 42°48' W 082°30'7 7.4 110 / 121026.0 -7.6-9.9
2018-Jan-15 20:00N 42°54' W 082°24'4 1.5 090 / 81026.0 -8.1-10.5
2018-Jan-15 17:00N 42°54' W 082°30'1212.0 140 / 101029.5 -8.7-11.6
2018-Jan-15 16:00N 42°42' W 082°30'0 0.0 130 / 10 -9.2-11.8
2018-Jan-15 15:00N 42°42' W 082°30'0 0.0 130 / 81030.1 -9.2-12.6
2018-Jan-15 14:00N 42°42' W 082°30'0 0.0 130 / 91030.3 -8.4-12.7
2018-Jan-15 13:00N 42°42' W 082°30'0 0.0 130 / 91030.4 -9.2-13.2
2018-Jan-15 12:00N 42°42' W 082°30'0 0.0 120 / 9 -8.8-12.2
2018-Jan-15 11:00N 42°42' W 082°30'0 0.0 120 / 6 -8.7-13.2
2018-Jan-15 10:00N 42°42' W 082°30'0 0.0 120 / 6 -9.0-12.9
2018-Jan-15 09:00N 42°42' W 082°30'0 0.0 140 / 5 -9.1-13.2
2018-Jan-15 08:00N 42°42' W 082°30'0 0.0 120 / 4 -9.6-13.5
2018-Jan-15 07:00N 42°42' W 082°30'0 0.0 140 / 3 -9.5-12.9
2018-Jan-15 06:00N 42°42' W 082°30'0 0.0 120 / 4 -9.4-13.1
2018-Jan-15 05:00N 42°42' W 082°30'0 0.0 140 / 5 -9.2-13.5
2018-Jan-15 04:00N 42°42' W 082°30'0 0.0 140 / 5 -9.1-13.1
2018-Jan-15 03:00N 42°42' W 082°30'6 6.0 130 / 6 -9.4-14.2
2018-Jan-15 02:00N 42°36' W 082°30'6 6.0 140 / 41036.0 -8.7-13.9
2018-Jan-15 01:00N 42°42' W 082°30'0 0.0 150 / 9 -8.9-14.2
2018-Jan-15 00:00N 42°42' W 082°30'0 0.0 140 / 91036.1 -8.5-14.2
2018-Jan-14 23:00N 42°42' W 082°30'7 7.4 150 / 81036.2 -4.7-11.6
2018-Jan-14 22:00N 42°36' W 082°36'7 7.5 180 / 61036.8 -8.5-15.6
2018-Jan-14 21:00N 42°30' W 082°42'0 0.0 200 / 81036.9 -8.1-15.5
2018-Jan-14 20:00N 42°30' W 082°42'4 4.4 150 / 101037.2 -8.5-15.3
2018-Jan-14 19:00N 42°30' W 082°36'0 0.0 170 / 71038.0 -8.9-13.9
2018-Jan-14 18:00N 42°30' W 082°36'0 0.0 180 / 81038.9 -8.8-14.5
2018-Jan-14 17:00N 42°30' W 082°36'0 0.0 190 / 41040.0 -8.8-13.7
2018-Jan-14 16:00N 42°30' W 082°36'7 7.5 200 / 31040.6 -8.9-15.1
2018-Jan-14 15:00N 42°36' W 082°30'6 6.0 190 / 31040.4 -9.5-12.9
2018-Jan-14 14:00N 42°42' W 082°30'15 7.5 180 / 21017.5 -12.0-13.2
2018-Jan-14 12:00N 42°30' W 082°42'1110.7 180 / 31039.6 -11.6-13.6
2018-Jan-14 11:00N 42°36' W 082°30'0 0.0 270 / 11039.1 -13.5-15.2
2018-Jan-14 10:00N 42°36' W 082°30'0 0.0 1038.9 -13.0-14.8
2018-Jan-14 09:00N 42°36' W 082°30'0 0.0 230 / 11038.8 -12.5-15.1
2018-Jan-14 08:00N 42°36' W 082°30'   250 / 21038.7 -13.5-15.6

Dump ship's entire track history